sensor_id;sensor_type;location;lat;lon;timestamp;pressure;altitude;pressure_sealevel;temperature;humidity
76728;BME280;65652;53.132;18.026;2023-05-07T00:00:37;101943.27;;;7.23;75.65
76728;BME280;65652;53.132;18.026;2023-05-07T00:03:19;101942.50;;;7.21;76.00
76728;BME280;65652;53.132;18.026;2023-05-07T00:05:46;101942.47;;;7.18;75.95
76728;BME280;65652;53.132;18.026;2023-05-07T00:08:13;101940.73;;;7.15;76.04
76728;BME280;65652;53.132;18.026;2023-05-07T00:10:40;101937.51;;;7.09;75.83
76728;BME280;65652;53.132;18.026;2023-05-07T00:13:07;101939.02;;;7.04;76.10
76728;BME280;65652;53.132;18.026;2023-05-07T00:15:34;101937.00;;;6.99;75.84
76728;BME280;65652;53.132;18.026;2023-05-07T00:18:01;101935.88;;;6.94;76.04
76728;BME280;65652;53.132;18.026;2023-05-07T00:20:28;101934.58;;;6.89;75.84
76728;BME280;65652;53.132;18.026;2023-05-07T00:22:55;101939.55;;;6.84;75.86
76728;BME280;65652;53.132;18.026;2023-05-07T00:25:22;101946.08;;;6.80;76.05
76728;BME280;65652;53.132;18.026;2023-05-07T00:27:48;101944.14;;;6.77;75.84
76728;BME280;65652;53.132;18.026;2023-05-07T00:30:15;101944.28;;;6.74;75.96
76728;BME280;65652;53.132;18.026;2023-05-07T00:32:42;101946.35;;;6.72;75.73
76728;BME280;65652;53.132;18.026;2023-05-07T00:35:12;101948.79;;;6.68;75.93
76728;BME280;65652;53.132;18.026;2023-05-07T00:37:39;101951.61;;;6.65;75.88
76728;BME280;65652;53.132;18.026;2023-05-07T00:40:06;101955.66;;;6.61;76.12
76728;BME280;65652;53.132;18.026;2023-05-07T00:42:34;101955.65;;;6.58;76.11
76728;BME280;65652;53.132;18.026;2023-05-07T00:45:01;101957.64;;;6.53;75.99
76728;BME280;65652;53.132;18.026;2023-05-07T00:47:29;101956.88;;;6.48;76.10
76728;BME280;65652;53.132;18.026;2023-05-07T00:49:57;101960.04;;;6.44;75.81
76728;BME280;65652;53.132;18.026;2023-05-07T00:52:25;101962.79;;;6.39;75.95
76728;BME280;65652;53.132;18.026;2023-05-07T00:54:53;101966.35;;;6.34;76.41
76728;BME280;65652;53.132;18.026;2023-05-07T00:57:20;101967.00;;;6.28;76.45
76728;BME280;65652;53.132;18.026;2023-05-07T00:59:48;101969.95;;;6.25;76.31
76728;BME280;65652;53.132;18.026;2023-05-07T01:02:16;101965.98;;;6.23;76.21
76728;BME280;65652;53.132;18.026;2023-05-07T01:04:43;101969.98;;;6.21;76.39
76728;BME280;65652;53.132;18.026;2023-05-07T01:07:10;101963.63;;;6.18;76.43
76728;BME280;65652;53.132;18.026;2023-05-07T01:09:37;101963.83;;;6.14;76.49
76728;BME280;65652;53.132;18.026;2023-05-07T01:12:04;101967.55;;;6.09;76.12
76728;BME280;65652;53.132;18.026;2023-05-07T01:14:33;101970.89;;;6.06;76.42
76728;BME280;65652;53.132;18.026;2023-05-07T01:17:01;101970.61;;;6.04;76.49
76728;BME280;65652;53.132;18.026;2023-05-07T01:19:29;101967.59;;;6.01;76.51
76728;BME280;65652;53.132;18.026;2023-05-07T01:22:02;101967.42;;;5.97;76.33
76728;BME280;65652;53.132;18.026;2023-05-07T01:24:31;101970.02;;;5.94;76.52
76728;BME280;65652;53.132;18.026;2023-05-07T01:26:59;101968.14;;;5.90;76.53
76728;BME280;65652;53.132;18.026;2023-05-07T01:29:30;101974.77;;;5.83;76.31
76728;BME280;65652;53.132;18.026;2023-05-07T01:31:59;101975.27;;;5.80;76.28
76728;BME280;65652;53.132;18.026;2023-05-07T01:34:28;101976.49;;;5.76;76.30
76728;BME280;65652;53.132;18.026;2023-05-07T01:36:57;101976.69;;;5.72;76.64
76728;BME280;65652;53.132;18.026;2023-05-07T01:39:27;101983.17;;;5.68;76.60
76728;BME280;65652;53.132;18.026;2023-05-07T01:41:55;101979.13;;;5.64;76.56
76728;BME280;65652;53.132;18.026;2023-05-07T01:44:23;101985.94;;;5.62;76.76
76728;BME280;65652;53.132;18.026;2023-05-07T01:46:51;101992.25;;;5.57;76.64
76728;BME280;65652;53.132;18.026;2023-05-07T01:49:18;101990.67;;;5.54;76.78
76728;BME280;65652;53.132;18.026;2023-05-07T01:51:45;101993.13;;;5.50;76.32
76728;BME280;65652;53.132;18.026;2023-05-07T01:54:12;101990.20;;;5.45;76.68
76728;BME280;65652;53.132;18.026;2023-05-07T01:56:39;101990.52;;;5.42;76.56
76728;BME280;65652;53.132;18.026;2023-05-07T01:59:06;101991.52;;;5.39;76.77
76728;BME280;65652;53.132;18.026;2023-05-07T02:01:33;101990.77;;;5.36;76.92
76728;BME280;65652;53.132;18.026;2023-05-07T02:04:01;101995.06;;;5.34;77.05
76728;BME280;65652;53.132;18.026;2023-05-07T02:06:29;101997.63;;;5.32;77.02
76728;BME280;65652;53.132;18.026;2023-05-07T02:09:00;101996.02;;;5.28;77.02
76728;BME280;65652;53.132;18.026;2023-05-07T02:11:28;101994.45;;;5.25;76.82
76728;BME280;65652;53.132;18.026;2023-05-07T02:13:55;101989.91;;;5.21;76.85
76728;BME280;65652;53.132;18.026;2023-05-07T02:16:22;101994.24;;;5.18;76.76
76728;BME280;65652;53.132;18.026;2023-05-07T02:18:50;101994.40;;;5.14;77.06
76728;BME280;65652;53.132;18.026;2023-05-07T02:21:17;101998.90;;;5.11;77.13
76728;BME280;65652;53.132;18.026;2023-05-07T02:23:44;101998.89;;;5.07;76.77
76728;BME280;65652;53.132;18.026;2023-05-07T02:26:12;102004.48;;;5.04;77.02
76728;BME280;65652;53.132;18.026;2023-05-07T02:28:39;102004.27;;;5.01;77.10
76728;BME280;65652;53.132;18.026;2023-05-07T02:31:06;102010.61;;;5.00;76.73
76728;BME280;65652;53.132;18.026;2023-05-07T02:33:33;102007.77;;;4.97;77.01
76728;BME280;65652;53.132;18.026;2023-05-07T02:36:09;102007.81;;;4.95;76.93
76728;BME280;65652;53.132;18.026;2023-05-07T02:38:41;102010.21;;;4.93;77.04
76728;BME280;65652;53.132;18.026;2023-05-07T02:41:08;102011.38;;;4.90;77.08
76728;BME280;65652;53.132;18.026;2023-05-07T02:43:35;102012.06;;;4.86;77.09
76728;BME280;65652;53.132;18.026;2023-05-07T02:46:06;102008.91;;;4.83;77.08
76728;BME280;65652;53.132;18.026;2023-05-07T02:48:35;102010.52;;;4.77;77.01
76728;BME280;65652;53.132;18.026;2023-05-07T02:51:03;102013.06;;;4.71;77.00
76728;BME280;65652;53.132;18.026;2023-05-07T02:53:31;102010.91;;;4.64;77.21
76728;BME280;65652;53.132;18.026;2023-05-07T02:56:00;102012.65;;;4.60;77.24
76728;BME280;65652;53.132;18.026;2023-05-07T02:58:27;102012.30;;;4.56;77.27
76728;BME280;65652;53.132;18.026;2023-05-07T03:00:54;102014.17;;;4.53;77.25
76728;BME280;65652;53.132;18.026;2023-05-07T03:03:50;102021.84;;;4.50;77.29
76728;BME280;65652;53.132;18.026;2023-05-07T03:06:17;102025.71;;;4.49;77.23
76728;BME280;65652;53.132;18.026;2023-05-07T03:08:44;102023.45;;;4.48;77.05
76728;BME280;65652;53.132;18.026;2023-05-07T03:11:11;102025.02;;;4.48;77.33
76728;BME280;65652;53.132;18.026;2023-05-07T03:13:37;102029.75;;;4.49;77.20
76728;BME280;65652;53.132;18.026;2023-05-07T03:16:05;102031.30;;;4.49;77.33
76728;BME280;65652;53.132;18.026;2023-05-07T03:18:32;102032.50;;;4.49;77.30
76728;BME280;65652;53.132;18.026;2023-05-07T03:20:58;102037.90;;;4.50;77.27
76728;BME280;65652;53.132;18.026;2023-05-07T03:23:25;102039.02;;;4.48;77.30
76728;BME280;65652;53.132;18.026;2023-05-07T03:25:52;102043.42;;;4.48;77.18
76728;BME280;65652;53.132;18.026;2023-05-07T03:28:19;102043.23;;;4.48;77.43
76728;BME280;65652;53.132;18.026;2023-05-07T03:30:51;102042.17;;;4.48;77.03
76728;BME280;65652;53.132;18.026;2023-05-07T03:33:18;102046.64;;;4.46;77.25
76728;BME280;65652;53.132;18.026;2023-05-07T03:35:45;102049.10;;;4.46;77.45
76728;BME280;65652;53.132;18.026;2023-05-07T03:38:15;102052.42;;;4.45;77.25
76728;BME280;65652;53.132;18.026;2023-05-07T03:40:41;102056.29;;;4.45;77.42
76728;BME280;65652;53.132;18.026;2023-05-07T03:43:08;102061.69;;;4.46;77.28
76728;BME280;65652;53.132;18.026;2023-05-07T03:45:36;102057.49;;;4.46;77.37
76728;BME280;65652;53.132;18.026;2023-05-07T03:48:10;102058.73;;;4.45;77.39
76728;BME280;65652;53.132;18.026;2023-05-07T03:50:38;102062.64;;;4.44;77.45
76728;BME280;65652;53.132;18.026;2023-05-07T03:53:05;102065.27;;;4.44;77.46
76728;BME280;65652;53.132;18.026;2023-05-07T03:55:33;102064.48;;;4.46;77.57
76728;BME280;65652;53.132;18.026;2023-05-07T03:58:00;102065.98;;;4.47;77.45
76728;BME280;65652;53.132;18.026;2023-05-07T04:00:28;102069.44;;;4.48;77.63
76728;BME280;65652;53.132;18.026;2023-05-07T04:02:58;102072.70;;;4.50;77.55
76728;BME280;65652;53.132;18.026;2023-05-07T04:05:27;102075.10;;;4.52;77.55
76728;BME280;65652;53.132;18.026;2023-05-07T04:07:58;102081.89;;;4.52;77.48
76728;BME280;65652;53.132;18.026;2023-05-07T04:10:29;102082.38;;;4.53;77.71
76728;BME280;65652;53.132;18.026;2023-05-07T04:12:57;102088.50;;;4.53;77.73
76728;BME280;65652;53.132;18.026;2023-05-07T04:15:24;102091.12;;;4.54;77.71
76728;BME280;65652;53.132;18.026;2023-05-07T04:17:51;102089.80;;;4.56;77.76
76728;BME280;65652;53.132;18.026;2023-05-07T04:20:19;102096.87;;;4.58;77.68
76728;BME280;65652;53.132;18.026;2023-05-07T04:22:49;102097.48;;;4.60;77.51
76728;BME280;65652;53.132;18.026;2023-05-07T04:25:16;102099.54;;;4.62;77.78
76728;BME280;65652;53.132;18.026;2023-05-07T04:27:43;102099.04;;;4.65;77.69
76728;BME280;65652;53.132;18.026;2023-05-07T04:30:10;102105.30;;;4.70;77.72
76728;BME280;65652;53.132;18.026;2023-05-07T04:32:38;102104.01;;;4.76;77.94
76728;BME280;65652;53.132;18.026;2023-05-07T04:35:06;102105.85;;;4.83;77.87
76728;BME280;65652;53.132;18.026;2023-05-07T04:37:33;102103.95;;;4.90;77.85
76728;BME280;65652;53.132;18.026;2023-05-07T04:40:01;102106.81;;;4.97;77.76
76728;BME280;65652;53.132;18.026;2023-05-07T04:42:29;102105.92;;;5.06;77.72
76728;BME280;65652;53.132;18.026;2023-05-07T04:44:56;102112.84;;;5.16;77.70
76728;BME280;65652;53.132;18.026;2023-05-07T04:47:24;102112.73;;;5.27;77.64
76728;BME280;65652;53.132;18.026;2023-05-07T04:49:51;102116.98;;;5.38;77.83
76728;BME280;65652;53.132;18.026;2023-05-07T04:52:18;102119.55;;;5.48;77.46
76728;BME280;65652;53.132;18.026;2023-05-07T04:54:44;102124.21;;;5.57;77.65
76728;BME280;65652;53.132;18.026;2023-05-07T04:57:12;102124.13;;;5.67;77.54
76728;BME280;65652;53.132;18.026;2023-05-07T04:59:39;102116.60;;;5.74;77.09
76728;BME280;65652;53.132;18.026;2023-05-07T05:02:06;102118.35;;;5.83;77.34
76728;BME280;65652;53.132;18.026;2023-05-07T05:04:34;102119.74;;;5.91;77.62
76728;BME280;65652;53.132;18.026;2023-05-07T05:07:01;102125.80;;;6.01;77.60
76728;BME280;65652;53.132;18.026;2023-05-07T05:09:31;102125.80;;;6.11;77.20
76728;BME280;65652;53.132;18.026;2023-05-07T05:11:59;102127.04;;;6.23;77.15
76728;BME280;65652;53.132;18.026;2023-05-07T05:14:26;102133.04;;;6.33;76.74
76728;BME280;65652;53.132;18.026;2023-05-07T05:16:53;102129.52;;;6.45;76.83
76728;BME280;65652;53.132;18.026;2023-05-07T05:19:20;102131.98;;;6.56;77.13
76728;BME280;65652;53.132;18.026;2023-05-07T05:21:47;102136.98;;;6.68;77.09
76728;BME280;65652;53.132;18.026;2023-05-07T05:24:14;102142.74;;;6.80;76.71
76728;BME280;65652;53.132;18.026;2023-05-07T05:26:41;102138.94;;;6.93;76.81
76728;BME280;65652;53.132;18.026;2023-05-07T05:29:08;102139.88;;;7.06;76.74
76728;BME280;65652;53.132;18.026;2023-05-07T05:31:36;102136.96;;;7.18;76.59
76728;BME280;65652;53.132;18.026;2023-05-07T05:34:03;102140.41;;;7.33;76.42
76728;BME280;65652;53.132;18.026;2023-05-07T05:36:30;102141.21;;;7.48;76.34
76728;BME280;65652;53.132;18.026;2023-05-07T05:38:57;102138.94;;;7.65;76.22
76728;BME280;65652;53.132;18.026;2023-05-07T05:41:24;102144.72;;;7.82;76.14
76728;BME280;65652;53.132;18.026;2023-05-07T05:43:51;102141.85;;;7.99;75.88
76728;BME280;65652;53.132;18.026;2023-05-07T05:46:19;102143.14;;;8.15;75.32
76728;BME280;65652;53.132;18.026;2023-05-07T05:48:46;102143.45;;;8.29;75.03
76728;BME280;65652;53.132;18.026;2023-05-07T05:51:13;102142.52;;;8.42;75.05
76728;BME280;65652;53.132;18.026;2023-05-07T05:53:40;102143.83;;;8.57;74.70
76728;BME280;65652;53.132;18.026;2023-05-07T05:56:08;102144.96;;;8.74;74.41
76728;BME280;65652;53.132;18.026;2023-05-07T05:58:35;102141.58;;;8.93;74.33
76728;BME280;65652;53.132;18.026;2023-05-07T06:01:04;102150.67;;;9.12;73.97
76728;BME280;65652;53.132;18.026;2023-05-07T06:03:32;102145.08;;;9.30;73.65
76728;BME280;65652;53.132;18.026;2023-05-07T06:06:00;102146.77;;;9.48;72.98
76728;BME280;65652;53.132;18.026;2023-05-07T06:08:30;102146.90;;;9.69;72.70
76728;BME280;65652;53.132;18.026;2023-05-07T06:10:58;102145.50;;;9.92;72.86
76728;BME280;65652;53.132;18.026;2023-05-07T06:13:25;102142.16;;;10.27;73.95
76728;BME280;65652;53.132;18.026;2023-05-07T06:15:52;102142.53;;;10.54;72.04
76728;BME280;65652;53.132;18.026;2023-05-07T06:18:20;102142.61;;;10.79;71.42
76728;BME280;65652;53.132;18.026;2023-05-07T06:20:47;102142.67;;;11.05;71.08
76728;BME280;65652;53.132;18.026;2023-05-07T06:23:21;102143.67;;;11.35;70.91
76728;BME280;65652;53.132;18.026;2023-05-07T06:25:49;102143.59;;;11.65;70.02
76728;BME280;65652;53.132;18.026;2023-05-07T06:28:17;102147.98;;;11.88;68.55
76728;BME280;65652;53.132;18.026;2023-05-07T06:30:44;102151.62;;;12.05;68.08
76728;BME280;65652;53.132;18.026;2023-05-07T06:33:11;102153.36;;;12.18;67.37
76728;BME280;65652;53.132;18.026;2023-05-07T06:35:38;102149.14;;;12.27;66.81
76728;BME280;65652;53.132;18.026;2023-05-07T06:38:06;102147.29;;;12.36;66.25
76728;BME280;65652;53.132;18.026;2023-05-07T06:40:33;102148.70;;;12.42;66.03
76728;BME280;65652;53.132;18.026;2023-05-07T06:43:00;102150.18;;;12.56;65.82
76728;BME280;65652;53.132;18.026;2023-05-07T06:45:50;102150.10;;;12.72;65.02
76728;BME280;65652;53.132;18.026;2023-05-07T06:48:17;102149.23;;;12.86;65.06
76728;BME280;65652;53.132;18.026;2023-05-07T06:50:52;102152.41;;;13.03;64.54
76728;BME280;65652;53.132;18.026;2023-05-07T06:53:19;102152.81;;;13.17;63.26
76728;BME280;65652;53.132;18.026;2023-05-07T06:55:46;102155.92;;;13.34;62.91
76728;BME280;65652;53.132;18.026;2023-05-07T06:58:14;102154.95;;;13.49;62.76
76728;BME280;65652;53.132;18.026;2023-05-07T07:00:41;102151.95;;;13.67;61.95
76728;BME280;65652;53.132;18.026;2023-05-07T07:03:07;102155.06;;;13.84;61.53
76728;BME280;65652;53.132;18.026;2023-05-07T07:05:35;102163.79;;;13.96;60.00
76728;BME280;65652;53.132;18.026;2023-05-07T07:08:03;102162.91;;;14.06;59.61
76728;BME280;65652;53.132;18.026;2023-05-07T07:10:29;102166.79;;;14.13;59.65
76728;BME280;65652;53.132;18.026;2023-05-07T07:12:56;102170.13;;;14.26;58.53
76728;BME280;65652;53.132;18.026;2023-05-07T07:15:23;102170.11;;;14.39;58.28
76728;BME280;65652;53.132;18.026;2023-05-07T07:17:51;102169.77;;;14.54;58.08
76728;BME280;65652;53.132;18.026;2023-05-07T07:20:18;102170.67;;;14.74;58.16
76728;BME280;65652;53.132;18.026;2023-05-07T07:22:45;102168.20;;;14.93;56.02
76728;BME280;65652;53.132;18.026;2023-05-07T07:25:12;102169.34;;;15.05;56.47
76728;BME280;65652;53.132;18.026;2023-05-07T07:27:39;102166.45;;;15.22;55.53
76728;BME280;65652;53.132;18.026;2023-05-07T07:30:07;102168.67;;;15.36;54.52
76728;BME280;65652;53.132;18.026;2023-05-07T07:32:37;102166.45;;;15.46;53.32
76728;BME280;65652;53.132;18.026;2023-05-07T07:35:05;102168.11;;;15.57;53.93
76728;BME280;65652;53.132;18.026;2023-05-07T07:37:32;102164.55;;;15.66;53.39
76728;BME280;65652;53.132;18.026;2023-05-07T07:39:59;102168.97;;;15.83;53.02
76728;BME280;65652;53.132;18.026;2023-05-07T07:42:26;102168.41;;;16.01;52.32
76728;BME280;65652;53.132;18.026;2023-05-07T07:44:53;102167.30;;;16.20;51.82
76728;BME280;65652;53.132;18.026;2023-05-07T07:47:22;102170.35;;;16.38;51.72
76728;BME280;65652;53.132;18.026;2023-05-07T07:49:49;102170.09;;;16.47;51.41
76728;BME280;65652;53.132;18.026;2023-05-07T07:52:16;102173.80;;;16.59;50.79
76728;BME280;65652;53.132;18.026;2023-05-07T07:54:44;102169.85;;;16.70;50.06
76728;BME280;65652;53.132;18.026;2023-05-07T07:57:11;102172.42;;;16.84;49.92
76728;BME280;65652;53.132;18.026;2023-05-07T07:59:38;102175.99;;;16.94;48.81
76728;BME280;65652;53.132;18.026;2023-05-07T08:02:07;102173.39;;;17.03;48.51
76728;BME280;65652;53.132;18.026;2023-05-07T08:04:34;102173.95;;;17.14;47.99
76728;BME280;65652;53.132;18.026;2023-05-07T08:07:06;102172.64;;;17.27;47.58
76728;BME280;65652;53.132;18.026;2023-05-07T08:09:34;102171.35;;;17.35;46.02
76728;BME280;65652;53.132;18.026;2023-05-07T08:12:02;102174.87;;;17.37;45.12
76728;BME280;65652;53.132;18.026;2023-05-07T08:14:30;102171.69;;;17.37;44.79
76728;BME280;65652;53.132;18.026;2023-05-07T08:16:59;102172.82;;;17.42;45.45
76728;BME280;65652;53.132;18.026;2023-05-07T08:19:27;102174.93;;;17.54;44.62
76728;BME280;65652;53.132;18.026;2023-05-07T08:21:54;102177.69;;;17.62;44.13
76728;BME280;65652;53.132;18.026;2023-05-07T08:24:23;102173.09;;;17.73;43.90
76728;BME280;65652;53.132;18.026;2023-05-07T08:26:52;102171.12;;;18.00;42.87
76728;BME280;65652;53.132;18.026;2023-05-07T08:29:22;102170.92;;;18.31;41.75
76728;BME280;65652;53.132;18.026;2023-05-07T08:31:49;102175.27;;;18.56;41.01
76728;BME280;65652;53.132;18.026;2023-05-07T08:34:16;102171.77;;;18.79;40.41
76728;BME280;65652;53.132;18.026;2023-05-07T08:36:44;102170.00;;;19.00;39.12
76728;BME280;65652;53.132;18.026;2023-05-07T08:39:15;102170.09;;;18.80;39.33
76728;BME280;65652;53.132;18.026;2023-05-07T08:41:45;102177.67;;;18.74;40.29
76728;BME280;65652;53.132;18.026;2023-05-07T08:44:16;102176.70;;;18.75;38.61
76728;BME280;65652;53.132;18.026;2023-05-07T08:46:48;102174.81;;;18.63;38.54
76728;BME280;65652;53.132;18.026;2023-05-07T08:49:19;102177.77;;;18.57;38.80
76728;BME280;65652;53.132;18.026;2023-05-07T08:51:46;102176.41;;;18.59;38.84
76728;BME280;65652;53.132;18.026;2023-05-07T08:54:16;102178.70;;;18.67;38.83
76728;BME280;65652;53.132;18.026;2023-05-07T08:56:43;102182.44;;;18.71;38.04
76728;BME280;65652;53.132;18.026;2023-05-07T08:59:10;102179.20;;;18.84;36.18
76728;BME280;65652;53.132;18.026;2023-05-07T09:01:37;102183.95;;;19.02;36.81
76728;BME280;65652;53.132;18.026;2023-05-07T09:04:06;102184.92;;;19.34;36.61
76728;BME280;65652;53.132;18.026;2023-05-07T09:06:34;102186.73;;;19.63;35.86
76728;BME280;65652;53.132;18.026;2023-05-07T09:09:01;102183.81;;;19.69;34.00
76728;BME280;65652;53.132;18.026;2023-05-07T09:11:29;102184.73;;;19.74;35.21
76728;BME280;65652;53.132;18.026;2023-05-07T09:13:58;102184.34;;;20.00;35.38
76728;BME280;65652;53.132;18.026;2023-05-07T09:16:32;102172.70;;;20.21;33.20
76728;BME280;65652;53.132;18.026;2023-05-07T09:18:59;102175.40;;;20.17;32.94
76728;BME280;65652;53.132;18.026;2023-05-07T09:21:30;102180.98;;;20.18;33.97
76728;BME280;65652;53.132;18.026;2023-05-07T09:23:58;102179.90;;;20.39;34.00
76728;BME280;65652;53.132;18.026;2023-05-07T09:26:30;102181.98;;;20.70;33.26
76728;BME280;65652;53.132;18.026;2023-05-07T09:28:59;102182.83;;;20.87;32.38
76728;BME280;65652;53.132;18.026;2023-05-07T09:31:26;102173.70;;;21.02;33.26
76728;BME280;65652;53.132;18.026;2023-05-07T09:33:54;102172.14;;;21.19;32.88
76728;BME280;65652;53.132;18.026;2023-05-07T09:36:23;102173.47;;;21.33;32.60
76728;BME280;65652;53.132;18.026;2023-05-07T09:38:50;102175.79;;;21.47;31.99
76728;BME280;65652;53.132;18.026;2023-05-07T09:41:18;102177.98;;;21.62;32.07
76728;BME280;65652;53.132;18.026;2023-05-07T09:43:54;102172.59;;;21.90;31.42
76728;BME280;65652;53.132;18.026;2023-05-07T09:46:28;102173.99;;;21.96;30.64
76728;BME280;65652;53.132;18.026;2023-05-07T09:48:58;102179.27;;;22.05;31.15
76728;BME280;65652;53.132;18.026;2023-05-07T09:51:43;102176.19;;;22.27;30.92
76728;BME280;65652;53.132;18.026;2023-05-07T09:54:12;102174.79;;;22.60;30.27
76728;BME280;65652;53.132;18.026;2023-05-07T09:56:40;102176.83;;;22.70;29.94
76728;BME280;65652;53.132;18.026;2023-05-07T09:59:12;102189.78;;;22.77;29.63
76728;BME280;65652;53.132;18.026;2023-05-07T10:01:43;102188.30;;;22.78;30.05
76728;BME280;65652;53.132;18.026;2023-05-07T10:04:11;102184.62;;;23.02;30.63
76728;BME280;65652;53.132;18.026;2023-05-07T10:06:40;102191.31;;;23.36;29.92
76728;BME280;65652;53.132;18.026;2023-05-07T10:09:08;102188.51;;;23.59;29.47
76728;BME280;65652;53.132;18.026;2023-05-07T10:11:35;102189.23;;;23.76;29.26
76728;BME280;65652;53.132;18.026;2023-05-07T10:14:04;102195.46;;;23.64;28.98
76728;BME280;65652;53.132;18.026;2023-05-07T10:16:34;102190.75;;;23.63;28.56
76728;BME280;65652;53.132;18.026;2023-05-07T10:19:04;102194.46;;;23.59;28.23
76728;BME280;65652;53.132;18.026;2023-05-07T10:21:36;102198.34;;;23.33;28.27
76728;BME280;65652;53.132;18.026;2023-05-07T10:24:25;102195.20;;;23.13;28.94
76728;BME280;65652;53.132;18.026;2023-05-07T10:26:53;102187.58;;;23.15;28.77
76728;BME280;65652;53.132;18.026;2023-05-07T10:32:15;102192.95;;;22.99;28.41
76728;BME280;65652;53.132;18.026;2023-05-07T10:34:50;102196.35;;;22.88;27.47
76728;BME280;65652;53.132;18.026;2023-05-07T10:37:21;102194.55;;;22.76;28.74
76728;BME280;65652;53.132;18.026;2023-05-07T10:39:49;102191.03;;;22.83;28.54
76728;BME280;65652;53.132;18.026;2023-05-07T10:42:16;102188.34;;;22.83;28.14
76728;BME280;65652;53.132;18.026;2023-05-07T10:44:48;102191.44;;;22.65;28.72
76728;BME280;65652;53.132;18.026;2023-05-07T10:47:21;102186.44;;;22.59;29.11
76728;BME280;65652;53.132;18.026;2023-05-07T10:52:24;102185.38;;;22.62;29.12
76728;BME280;65652;53.132;18.026;2023-05-07T10:58:37;102181.80;;;23.12;28.61
76728;BME280;65652;53.132;18.026;2023-05-07T11:04:17;102188.81;;;23.55;28.27
76728;BME280;65652;53.132;18.026;2023-05-07T11:15:16;102193.86;;;23.20;28.02
76728;BME280;65652;53.132;18.026;2023-05-07T11:18:00;102195.59;;;22.78;28.07
76728;BME280;65652;53.132;18.026;2023-05-07T11:20:52;102192.92;;;22.45;28.43
76728;BME280;65652;53.132;18.026;2023-05-07T11:26:31;102201.51;;;22.34;29.00
76728;BME280;65652;53.132;18.026;2023-05-07T11:28:59;102198.52;;;22.74;28.28
76728;BME280;65652;53.132;18.026;2023-05-07T11:31:27;102195.76;;;23.01;27.83
76728;BME280;65652;53.132;18.026;2023-05-07T11:33:57;102193.42;;;22.90;28.30
76728;BME280;65652;53.132;18.026;2023-05-07T11:36:30;102189.46;;;22.64;28.61
76728;BME280;65652;53.132;18.026;2023-05-07T11:38:57;102192.96;;;22.43;29.00
76728;BME280;65652;53.132;18.026;2023-05-07T11:41:34;102193.70;;;22.41;28.67
76728;BME280;65652;53.132;18.026;2023-05-07T11:44:02;102192.67;;;22.63;27.97
76728;BME280;65652;53.132;18.026;2023-05-07T11:46:30;102193.46;;;22.68;28.44
76728;BME280;65652;53.132;18.026;2023-05-07T11:48:57;102191.61;;;22.95;28.22
76728;BME280;65652;53.132;18.026;2023-05-07T11:51:25;102187.92;;;23.26;28.21
76728;BME280;65652;53.132;18.026;2023-05-07T11:53:53;102194.81;;;23.29;28.22
76728;BME280;65652;53.132;18.026;2023-05-07T11:56:20;102192.01;;;23.07;28.03
76728;BME280;65652;53.132;18.026;2023-05-07T11:58:48;102189.83;;;22.87;28.61
76728;BME280;65652;53.132;18.026;2023-05-07T12:01:15;102196.43;;;23.06;28.28
76728;BME280;65652;53.132;18.026;2023-05-07T12:03:44;102195.30;;;22.89;27.95
76728;BME280;65652;53.132;18.026;2023-05-07T12:06:15;102202.27;;;22.42;28.32
76728;BME280;65652;53.132;18.026;2023-05-07T12:08:43;102205.34;;;21.96;28.69
76728;BME280;65652;53.132;18.026;2023-05-07T12:11:22;102206.85;;;21.58;28.97
76728;BME280;65652;53.132;18.026;2023-05-07T12:13:50;102202.73;;;21.35;29.02
76728;BME280;65652;53.132;18.026;2023-05-07T12:16:17;102203.21;;;21.63;28.91
76728;BME280;65652;53.132;18.026;2023-05-07T12:18:44;102201.83;;;22.11;28.32
76728;BME280;65652;53.132;18.026;2023-05-07T12:21:11;102198.73;;;22.57;28.10
76728;BME280;65652;53.132;18.026;2023-05-07T12:23:39;102199.80;;;23.08;27.38
76728;BME280;65652;53.132;18.026;2023-05-07T12:26:06;102198.30;;;23.51;27.33
76728;BME280;65652;53.132;18.026;2023-05-07T12:28:37;102190.63;;;23.95;26.91
76728;BME280;65652;53.132;18.026;2023-05-07T12:31:07;102191.52;;;24.35;26.95
76728;BME280;65652;53.132;18.026;2023-05-07T12:33:34;102189.05;;;24.35;26.73
76728;BME280;65652;53.132;18.026;2023-05-07T12:36:08;102188.52;;;24.62;26.48
76728;BME280;65652;53.132;18.026;2023-05-07T12:38:36;102189.47;;;25.02;25.63
76728;BME280;65652;53.132;18.026;2023-05-07T12:41:04;102190.62;;;25.28;25.53
76728;BME280;65652;53.132;18.026;2023-05-07T12:43:31;102193.22;;;25.38;24.65
76728;BME280;65652;53.132;18.026;2023-05-07T12:46:01;102191.91;;;25.53;25.03
76728;BME280;65652;53.132;18.026;2023-05-07T12:48:28;102187.19;;;25.88;24.62
76728;BME280;65652;53.132;18.026;2023-05-07T12:50:56;102187.59;;;26.14;24.01
76728;BME280;65652;53.132;18.026;2023-05-07T12:53:25;102188.77;;;26.20;23.14
76728;BME280;65652;53.132;18.026;2023-05-07T12:55:55;102184.20;;;26.31;23.85
76728;BME280;65652;53.132;18.026;2023-05-07T12:58:27;102179.66;;;26.64;23.72
76728;BME280;65652;53.132;18.026;2023-05-07T13:00:56;102182.54;;;26.97;23.21
76728;BME280;65652;53.132;18.026;2023-05-07T13:03:27;102178.27;;;27.20;22.64
76728;BME280;65652;53.132;18.026;2023-05-07T13:05:57;102180.80;;;27.34;22.28
76728;BME280;65652;53.132;18.026;2023-05-07T13:10:52;102171.77;;;27.74;21.82
76728;BME280;65652;53.132;18.026;2023-05-07T13:13:20;102172.01;;;27.75;21.45
76728;BME280;65652;53.132;18.026;2023-05-07T13:15:47;102168.28;;;27.74;21.61
76728;BME280;65652;53.132;18.026;2023-05-07T13:18:14;102171.79;;;27.81;21.22